HLE41 EGCK-EGFH
Flight info
| Callsign | HLE41 |
|---|---|
| Flight time | 0h 50m |
| Altitude | 2500 |
| Route | EGCK DCT EGFD DCT EGFH |
| Aircraft | EC45/L-SFG/C |
Departure
| Time | 2026-05-08 15:47 |
|---|---|
| Airport | Caernarfon Airport (EGCK) |
Arrival
| Time | 2026-05-08 16:37 |
|---|---|
| Airport | Swansea Airport (EGFH) |
| Time | Latitude | Longitude | Altitude | Speed | Heading |
|---|---|---|---|---|---|
| 2026-05-08 15:40 | 53.10058 | -4.33864 | 14 ft | 0 kts | 151° |
| 2026-05-08 15:43 | 53.10060 | -4.33864 | 15 ft | 2 kts | 151° |
| 2026-05-08 15:43 | 53.10078 | -4.33865 | 24 ft | 6 kts | 258° |
| 2026-05-08 15:43 | 53.10072 | -4.33888 | 23 ft | 7 kts | 246° |
| 2026-05-08 15:43 | 53.10043 | -4.33986 | 19 ft | 13 kts | 232° |
| 2026-05-08 15:44 | 53.09997 | -4.34067 | 17 ft | 6 kts | 229° |
| 2026-05-08 15:44 | 53.09974 | -4.34109 | 19 ft | 4 kts | 240° |
| 2026-05-08 15:44 | 53.09966 | -4.34127 | 20 ft | 1 kts | 260° |
| 2026-05-08 15:44 | 53.09965 | -4.34130 | 13 ft | 1 kts | 259° |
| 2026-05-08 15:45 | 53.09963 | -4.34155 | 14 ft | 3 kts | 282° |
| 2026-05-08 15:46 | 53.09970 | -4.34192 | 14 ft | 5 kts | 343° |
| 2026-05-08 15:46 | 53.10012 | -4.34192 | 25 ft | 13 kts | 25° |
| 2026-05-08 15:46 | 53.10091 | -4.34187 | 22 ft | 2 kts | 85° |
| 2026-05-08 15:46 | 53.10133 | -4.33968 | 88 ft | 57 kts | 75° |
| 2026-05-08 15:47 | 53.10303 | -4.33133 | 200 ft | 89 kts | 70° |
| 2026-05-08 15:47 | 53.10494 | -4.32174 | 457 ft | 84 kts | 77° |
| 2026-05-08 15:47 | 53.10611 | -4.31257 | 713 ft | 86 kts | 104° |
| 2026-05-08 15:47 | 53.10159 | -4.30533 | 909 ft | 105 kts | 166° |
| 2026-05-08 15:48 | 53.08544 | -4.30112 | 1015 ft | 128 kts | 174° |
| 2026-05-08 15:48 | 53.07637 | -4.29904 | 975 ft | 135 kts | 172° |
| 2026-05-08 15:48 | 53.07012 | -4.29898 | 895 ft | 61 kts | 222° |
| 2026-05-08 15:49 | 53.06720 | -4.30091 | 789 ft | 21 kts | 213° |
| 2026-05-08 15:49 | 53.06634 | -4.30093 | 1114 ft | 32 kts | 184° |
| 2026-05-08 15:49 | 53.06273 | -4.30070 | 1219 ft | 70 kts | 143° |
| 2026-05-08 15:49 | 53.05654 | -4.29784 | 1360 ft | 116 kts | 159° |
| 2026-05-08 15:50 | 53.04796 | -4.29391 | 1057 ft | 131 kts | 159° |
| 2026-05-08 15:50 | 53.03951 | -4.29019 | 1250 ft | 128 kts | 163° |
| 2026-05-08 15:50 | 53.03527 | -4.28994 | 375 ft | 71 kts | 155° |
| 2026-05-08 15:50 | 53.03441 | -4.28937 | 534 ft | 16 kts | 125° |
| 2026-05-08 15:51 | 53.03248 | -4.28497 | 737 ft | 81 kts | 107° |
| 2026-05-08 15:51 | 53.02951 | -4.27516 | 851 ft | 99 kts | 112° |
| 2026-05-08 15:51 | 53.02820 | -4.26356 | 871 ft | 109 kts | 101° |
| 2026-05-08 15:51 | 53.02375 | -4.25281 | 848 ft | 126 kts | 129° |
| 2026-05-08 15:52 | 53.01947 | -4.24695 | 1618 ft | 44 kts | 135° |
| 2026-05-08 15:52 | 53.01612 | -4.25252 | 1578 ft | 120 kts | 255° |
| 2026-05-08 15:52 | 53.01342 | -4.26703 | 1512 ft | 135 kts | 254° |
| 2026-05-08 15:52 | 53.00850 | -4.28009 | 1452 ft | 136 kts | 212° |
| 2026-05-08 15:53 | 52.99978 | -4.28156 | 1543 ft | 126 kts | 156° |
| 2026-05-08 15:53 | 52.99203 | -4.27449 | 1609 ft | 125 kts | 143° |
| 2026-05-08 15:53 | 52.98506 | -4.26616 | 1736 ft | 125 kts | 137° |
| 2026-05-08 15:53 | 52.97810 | -4.25748 | 1838 ft | 125 kts | 140° |
| 2026-05-08 15:54 | 52.97105 | -4.24972 | 1993 ft | 122 kts | 143° |
| 2026-05-08 15:54 | 52.96378 | -4.24246 | 2005 ft | 124 kts | 144° |
| 2026-05-08 15:54 | 52.95615 | -4.23536 | 1994 ft | 126 kts | 147° |
| 2026-05-08 15:54 | 52.94840 | -4.22855 | 1984 ft | 126 kts | 149° |
| 2026-05-08 15:55 | 52.94063 | -4.22203 | 1983 ft | 125 kts | 149° |
| 2026-05-08 15:55 | 52.92515 | -4.20983 | 2196 ft | 120 kts | 150° |
| 2026-05-08 15:55 | 52.91760 | -4.20402 | 2188 ft | 121 kts | 151° |
| 2026-05-08 15:56 | 52.91000 | -4.19824 | 2187 ft | 121 kts | 150° |
| 2026-05-08 15:56 | 52.90231 | -4.19248 | 2183 ft | 122 kts | 153° |
| 2026-05-08 15:56 | 52.89456 | -4.18684 | 2350 ft | 118 kts | 153° |
| 2026-05-08 15:56 | 52.88699 | -4.18131 | 2419 ft | 120 kts | 152° |
| 2026-05-08 15:57 | 52.87931 | -4.17568 | 2448 ft | 121 kts | 151° |
| 2026-05-08 15:57 | 52.87166 | -4.17004 | 2458 ft | 120 kts | 151° |
| 2026-05-08 15:57 | 52.86391 | -4.16437 | 2468 ft | 124 kts | 148° |
| 2026-05-08 15:57 | 52.85610 | -4.15871 | 2471 ft | 122 kts | 144° |
| 2026-05-08 15:58 | 52.84838 | -4.15318 | 2471 ft | 124 kts | 142° |
| 2026-05-08 15:58 | 52.84047 | -4.14758 | 2470 ft | 124 kts | 141° |
| 2026-05-08 15:58 | 52.83258 | -4.14199 | 2471 ft | 122 kts | 140° |
| 2026-05-08 15:58 | 52.82483 | -4.13647 | 2467 ft | 122 kts | 140° |
| 2026-05-08 15:59 | 52.81695 | -4.13083 | 2468 ft | 124 kts | 142° |
| 2026-05-08 15:59 | 52.80878 | -4.12693 | 2470 ft | 121 kts | 163° |
| 2026-05-08 15:59 | 52.80046 | -4.12569 | 2459 ft | 121 kts | 171° |
| 2026-05-08 15:59 | 52.79201 | -4.12493 | 2463 ft | 122 kts | 172° |
| 2026-05-08 16:00 | 52.78368 | -4.12429 | 2461 ft | 121 kts | 172° |
| 2026-05-08 16:00 | 52.77524 | -4.12372 | 2460 ft | 122 kts | 173° |
| 2026-05-08 16:00 | 52.76673 | -4.12320 | 2461 ft | 123 kts | 174° |
| 2026-05-08 16:00 | 52.75823 | -4.12269 | 2460 ft | 123 kts | 174° |
| 2026-05-08 16:01 | 52.74965 | -4.12219 | 2462 ft | 123 kts | 174° |
| 2026-05-08 16:01 | 52.74107 | -4.12171 | 2462 ft | 123 kts | 175° |
| 2026-05-08 16:01 | 52.73251 | -4.12125 | 2463 ft | 123 kts | 175° |
| 2026-05-08 16:01 | 52.72393 | -4.12079 | 2462 ft | 124 kts | 175° |
| 2026-05-08 16:02 | 52.71540 | -4.12033 | 2460 ft | 123 kts | 175° |
| 2026-05-08 16:02 | 52.70700 | -4.11989 | 2462 ft | 122 kts | 175° |
| 2026-05-08 16:02 | 52.69853 | -4.11942 | 2461 ft | 121 kts | 175° |
| 2026-05-08 16:02 | 52.69005 | -4.11894 | 2467 ft | 122 kts | 175° |
| 2026-05-08 16:03 | 52.68161 | -4.11851 | 2460 ft | 121 kts | 175° |
| 2026-05-08 16:03 | 52.67320 | -4.11815 | 2457 ft | 121 kts | 174° |
| 2026-05-08 16:03 | 52.66483 | -4.11779 | 2458 ft | 120 kts | 175° |
| 2026-05-08 16:03 | 52.65645 | -4.11743 | 2459 ft | 121 kts | 175° |
| 2026-05-08 16:04 | 52.64801 | -4.11706 | 2460 ft | 122 kts | 174° |
| 2026-05-08 16:04 | 52.63971 | -4.11669 | 2457 ft | 121 kts | 174° |
| 2026-05-08 16:04 | 52.63132 | -4.11631 | 2457 ft | 121 kts | 174° |
| 2026-05-08 16:04 | 52.62288 | -4.11593 | 2468 ft | 119 kts | 173° |
| 2026-05-08 16:05 | 52.61449 | -4.11550 | 2459 ft | 122 kts | 174° |
| 2026-05-08 16:05 | 52.60610 | -4.11507 | 2458 ft | 120 kts | 174° |
| 2026-05-08 16:05 | 52.59769 | -4.11466 | 2460 ft | 121 kts | 174° |
| 2026-05-08 16:05 | 52.58930 | -4.11426 | 2458 ft | 120 kts | 174° |
| 2026-05-08 16:06 | 52.58097 | -4.11386 | 2459 ft | 120 kts | 175° |
| 2026-05-08 16:06 | 52.57256 | -4.11346 | 2460 ft | 121 kts | 176° |
| 2026-05-08 16:06 | 52.56422 | -4.11307 | 2459 ft | 121 kts | 175° |
| 2026-05-08 16:06 | 52.55583 | -4.11268 | 2459 ft | 120 kts | 175° |
| 2026-05-08 16:07 | 52.54744 | -4.11227 | 2458 ft | 121 kts | 176° |
| 2026-05-08 16:07 | 52.53896 | -4.11187 | 2458 ft | 122 kts | 175° |
| 2026-05-08 16:07 | 52.53055 | -4.11145 | 2455 ft | 121 kts | 175° |
| 2026-05-08 16:07 | 52.52212 | -4.11105 | 2458 ft | 120 kts | 174° |
| 2026-05-08 16:08 | 52.51377 | -4.11063 | 2457 ft | 120 kts | 174° |
| 2026-05-08 16:08 | 52.50545 | -4.11022 | 2455 ft | 120 kts | 174° |
| 2026-05-08 16:08 | 52.49708 | -4.10983 | 2456 ft | 120 kts | 174° |
| 2026-05-08 16:08 | 52.48882 | -4.10945 | 2458 ft | 120 kts | 174° |
| 2026-05-08 16:09 | 52.48045 | -4.10907 | 2459 ft | 120 kts | 174° |
| 2026-05-08 16:09 | 52.47210 | -4.10868 | 2456 ft | 122 kts | 175° |
| 2026-05-08 16:09 | 52.46364 | -4.10829 | 2457 ft | 121 kts | 176° |
| 2026-05-08 16:09 | 52.45515 | -4.10789 | 2457 ft | 122 kts | 176° |
| 2026-05-08 16:10 | 52.44666 | -4.10748 | 2460 ft | 123 kts | 177° |
| 2026-05-08 16:10 | 52.43808 | -4.10708 | 2461 ft | 123 kts | 177° |
| 2026-05-08 16:10 | 52.42953 | -4.10666 | 2459 ft | 123 kts | 177° |
| 2026-05-08 16:10 | 52.42100 | -4.10623 | 2458 ft | 123 kts | 177° |
| 2026-05-08 16:11 | 52.41244 | -4.10582 | 2457 ft | 123 kts | 177° |
| 2026-05-08 16:11 | 52.40401 | -4.10542 | 2455 ft | 123 kts | 177° |
| 2026-05-08 16:11 | 52.39549 | -4.10501 | 2455 ft | 122 kts | 176° |
| 2026-05-08 16:11 | 52.38698 | -4.10461 | 2456 ft | 122 kts | 176° |
| 2026-05-08 16:12 | 52.37847 | -4.10420 | 2452 ft | 123 kts | 177° |
| 2026-05-08 16:12 | 52.36993 | -4.10380 | 2454 ft | 122 kts | 177° |
| 2026-05-08 16:12 | 52.36139 | -4.10340 | 2457 ft | 123 kts | 177° |
| 2026-05-08 16:12 | 52.35290 | -4.10298 | 2453 ft | 123 kts | 177° |
| 2026-05-08 16:13 | 52.34435 | -4.10257 | 2453 ft | 123 kts | 177° |
| 2026-05-08 16:13 | 52.33577 | -4.10218 | 2455 ft | 123 kts | 177° |
| 2026-05-08 16:13 | 52.32724 | -4.10177 | 2454 ft | 123 kts | 177° |
| 2026-05-08 16:13 | 52.31870 | -4.10136 | 2455 ft | 122 kts | 176° |
| 2026-05-08 16:14 | 52.31029 | -4.10095 | 2457 ft | 123 kts | 176° |
| 2026-05-08 16:14 | 52.30174 | -4.10056 | 2452 ft | 123 kts | 176° |
| 2026-05-08 16:14 | 52.29319 | -4.10016 | 2450 ft | 123 kts | 176° |
| 2026-05-08 16:14 | 52.28468 | -4.09976 | 2451 ft | 122 kts | 176° |
| 2026-05-08 16:15 | 52.27618 | -4.09934 | 2452 ft | 122 kts | 176° |
| 2026-05-08 16:15 | 52.26768 | -4.09895 | 2451 ft | 123 kts | 176° |
| 2026-05-08 16:15 | 52.25913 | -4.09857 | 2454 ft | 123 kts | 176° |
| 2026-05-08 16:15 | 52.25059 | -4.09817 | 2457 ft | 122 kts | 176° |
| 2026-05-08 16:16 | 52.24312 | -4.09771 | 2474 ft | 96 kts | 176° |
| 2026-05-08 16:16 | 52.23629 | -4.09736 | 2456 ft | 101 kts | 176° |
| 2026-05-08 16:16 | 52.22931 | -4.09703 | 2456 ft | 101 kts | 176° |
| 2026-05-08 16:16 | 52.22226 | -4.09670 | 2456 ft | 101 kts | 176° |
| 2026-05-08 16:17 | 52.21520 | -4.09636 | 2454 ft | 102 kts | 176° |
| 2026-05-08 16:17 | 52.20810 | -4.09602 | 2450 ft | 102 kts | 178° |
| 2026-05-08 16:17 | 52.20104 | -4.09569 | 2450 ft | 102 kts | 179° |
| 2026-05-08 16:17 | 52.19397 | -4.09536 | 2451 ft | 102 kts | 179° |
| 2026-05-08 16:18 | 52.18690 | -4.09503 | 2451 ft | 102 kts | 179° |
| 2026-05-08 16:18 | 52.17996 | -4.09470 | 2451 ft | 101 kts | 179° |
| 2026-05-08 16:18 | 52.17288 | -4.09438 | 2452 ft | 102 kts | 178° |
| 2026-05-08 16:18 | 52.16580 | -4.09405 | 2451 ft | 102 kts | 178° |
| 2026-05-08 16:19 | 52.15870 | -4.09372 | 2452 ft | 102 kts | 178° |
| 2026-05-08 16:19 | 52.15161 | -4.09339 | 2452 ft | 102 kts | 178° |
| 2026-05-08 16:19 | 52.14453 | -4.09305 | 2452 ft | 101 kts | 179° |
| 2026-05-08 16:19 | 52.13749 | -4.09272 | 2451 ft | 101 kts | 179° |
| 2026-05-08 16:20 | 52.13045 | -4.09238 | 2449 ft | 101 kts | 179° |
| 2026-05-08 16:20 | 52.12347 | -4.09206 | 2450 ft | 102 kts | 179° |
| 2026-05-08 16:20 | 52.11642 | -4.09173 | 2448 ft | 102 kts | 179° |
| 2026-05-08 16:20 | 52.10935 | -4.09139 | 2450 ft | 101 kts | 179° |
| 2026-05-08 16:21 | 52.10232 | -4.09105 | 2449 ft | 101 kts | 179° |
| 2026-05-08 16:21 | 52.09529 | -4.09072 | 2449 ft | 101 kts | 179° |
| 2026-05-08 16:21 | 52.08826 | -4.09039 | 2448 ft | 101 kts | 179° |
| 2026-05-08 16:21 | 52.08121 | -4.09007 | 2449 ft | 101 kts | 179° |
| 2026-05-08 16:22 | 52.07413 | -4.08975 | 2449 ft | 102 kts | 178° |
| 2026-05-08 16:22 | 52.06703 | -4.08942 | 2449 ft | 102 kts | 178° |
| 2026-05-08 16:22 | 52.06004 | -4.08909 | 2449 ft | 102 kts | 179° |
| 2026-05-08 16:22 | 52.05296 | -4.08876 | 2450 ft | 102 kts | 178° |
| 2026-05-08 16:23 | 52.04591 | -4.08842 | 2452 ft | 101 kts | 179° |
| 2026-05-08 16:23 | 52.03889 | -4.08808 | 2451 ft | 101 kts | 179° |
| 2026-05-08 16:23 | 52.03182 | -4.08776 | 2451 ft | 102 kts | 179° |
| 2026-05-08 16:23 | 52.02472 | -4.08743 | 2452 ft | 102 kts | 179° |
| 2026-05-08 16:24 | 52.01763 | -4.08710 | 2449 ft | 102 kts | 179° |
| 2026-05-08 16:24 | 52.01052 | -4.08677 | 2449 ft | 102 kts | 179° |
| 2026-05-08 16:24 | 52.00352 | -4.08645 | 2449 ft | 102 kts | 179° |
| 2026-05-08 16:24 | 51.99642 | -4.08612 | 2449 ft | 102 kts | 178° |
| 2026-05-08 16:25 | 51.98932 | -4.08579 | 2449 ft | 102 kts | 178° |
| 2026-05-08 16:25 | 51.98222 | -4.08546 | 2449 ft | 102 kts | 179° |
| 2026-05-08 16:25 | 51.97513 | -4.08512 | 2451 ft | 102 kts | 178° |
| 2026-05-08 16:25 | 51.96821 | -4.08478 | 2453 ft | 96 kts | 179° |
| 2026-05-08 16:26 | 51.96145 | -4.08448 | 2451 ft | 98 kts | 179° |
| 2026-05-08 16:26 | 51.95470 | -4.08416 | 2450 ft | 99 kts | 179° |
| 2026-05-08 16:26 | 51.94787 | -4.08384 | 2449 ft | 98 kts | 179° |
| 2026-05-08 16:26 | 51.94104 | -4.08351 | 2449 ft | 98 kts | 178° |
| 2026-05-08 16:27 | 51.93424 | -4.08320 | 2452 ft | 97 kts | 179° |
| 2026-05-08 16:27 | 51.92748 | -4.08286 | 2448 ft | 98 kts | 179° |
| 2026-05-08 16:27 | 51.92069 | -4.08254 | 2446 ft | 98 kts | 180° |
| 2026-05-08 16:27 | 51.91387 | -4.08224 | 2452 ft | 97 kts | 179° |
| 2026-05-08 16:28 | 51.90708 | -4.08192 | 2447 ft | 98 kts | 180° |
| 2026-05-08 16:28 | 51.90034 | -4.08159 | 2449 ft | 95 kts | 180° |
| 2026-05-08 16:28 | 51.89292 | -4.08141 | 2292 ft | 119 kts | 177° |
| 2026-05-08 16:28 | 51.88469 | -4.08043 | 2152 ft | 113 kts | 175° |
| 2026-05-08 16:29 | 51.87702 | -4.07969 | 2074 ft | 111 kts | 180° |
| 2026-05-08 16:29 | 51.86905 | -4.07948 | 1967 ft | 120 kts | 180° |
| 2026-05-08 16:29 | 51.86095 | -4.07930 | 1962 ft | 117 kts | 180° |
| 2026-05-08 16:29 | 51.85278 | -4.07911 | 1958 ft | 117 kts | 180° |
| 2026-05-08 16:30 | 51.84464 | -4.07889 | 1955 ft | 116 kts | 180° |
| 2026-05-08 16:30 | 51.83655 | -4.07861 | 1951 ft | 117 kts | 179° |
| 2026-05-08 16:30 | 51.82854 | -4.07829 | 1951 ft | 117 kts | 179° |
| 2026-05-08 16:30 | 51.82043 | -4.07793 | 1953 ft | 116 kts | 179° |
| 2026-05-08 16:31 | 51.81228 | -4.07756 | 1949 ft | 118 kts | 179° |
| 2026-05-08 16:31 | 51.80419 | -4.07717 | 1947 ft | 117 kts | 179° |
| 2026-05-08 16:31 | 51.79605 | -4.07681 | 1951 ft | 117 kts | 179° |
| 2026-05-08 16:31 | 51.78797 | -4.07643 | 1950 ft | 116 kts | 179° |
| 2026-05-08 16:32 | 51.77986 | -4.07607 | 1948 ft | 118 kts | 179° |
| 2026-05-08 16:32 | 51.77177 | -4.07571 | 1950 ft | 116 kts | 179° |
| 2026-05-08 16:32 | 51.76372 | -4.07536 | 1945 ft | 116 kts | 180° |
| 2026-05-08 16:32 | 51.75576 | -4.07506 | 1954 ft | 116 kts | 179° |
| 2026-05-08 16:33 | 51.74777 | -4.07467 | 1905 ft | 113 kts | 179° |
| 2026-05-08 16:33 | 51.73984 | -4.07422 | 1779 ft | 114 kts | 178° |
| 2026-05-08 16:33 | 51.73183 | -4.07376 | 1612 ft | 117 kts | 177° |
| 2026-05-08 16:33 | 51.72366 | -4.07333 | 1520 ft | 118 kts | 177° |
| 2026-05-08 16:34 | 51.71541 | -4.07295 | 1482 ft | 119 kts | 177° |
| 2026-05-08 16:34 | 51.70711 | -4.07258 | 1465 ft | 120 kts | 175° |
| 2026-05-08 16:34 | 51.69919 | -4.06933 | 1456 ft | 118 kts | 161° |
| 2026-05-08 16:34 | 51.69147 | -4.06505 | 1456 ft | 118 kts | 160° |
| 2026-05-08 16:35 | 51.68367 | -4.06050 | 1453 ft | 120 kts | 159° |
| 2026-05-08 16:35 | 51.67598 | -4.05580 | 1450 ft | 118 kts | 158° |
| 2026-05-08 16:35 | 51.66807 | -4.05330 | 1378 ft | 116 kts | 182° |
| 2026-05-08 16:35 | 51.66039 | -4.05513 | 1397 ft | 110 kts | 189° |
| 2026-05-08 16:36 | 51.65271 | -4.05592 | 1303 ft | 111 kts | 179° |
| 2026-05-08 16:36 | 51.64523 | -4.05762 | 1280 ft | 107 kts | 199° |
| 2026-05-08 16:36 | 51.63849 | -4.06216 | 1283 ft | 103 kts | 201° |
| 2026-05-08 16:36 | 51.63221 | -4.06701 | 1358 ft | 100 kts | 205° |
| 2026-05-08 16:37 | 51.62563 | -4.06845 | 1463 ft | 94 kts | 170° |
| 2026-05-08 16:37 | 51.62029 | -4.07241 | 1402 ft | 71 kts | 223° |
| 2026-05-08 16:37 | 51.61716 | -4.07773 | 961 ft | 71 kts | 213° |
| 2026-05-08 16:37 | 51.61331 | -4.07993 | 641 ft | 44 kts | 176° |
| 2026-05-08 16:38 | 51.61159 | -4.07917 | 588 ft | 32 kts | 166° |
| 2026-05-08 16:38 | 51.60820 | -4.07681 | 543 ft | 70 kts | 153° |
| 2026-05-08 16:38 | 51.60421 | -4.07246 | 357 ft | 66 kts | 152° |
| 2026-05-08 16:38 | 51.60221 | -4.07001 | 281 ft | 6 kts | 169° |
| 2026-05-08 16:39 | 51.60165 | -4.06963 | 284 ft | 17 kts | 85° |
| 2026-05-08 16:39 | 51.60191 | -4.06856 | 274 ft | 8 kts | 54° |
| 2026-05-08 16:39 | 51.60193 | -4.06804 | 275 ft | 6 kts | 139° |
| 2026-05-08 16:39 | 51.60188 | -4.06747 | 275 ft | 8 kts | 131° |
| 2026-05-08 16:40 | 51.60154 | -4.06658 | 276 ft | 6 kts | 199° |
| 2026-05-08 16:40 | 51.60138 | -4.06688 | 275 ft | 1 kts | 288° |
| 2026-05-08 16:40 | 51.60138 | -4.06699 | 274 ft | 1 kts | 288° |